sensor_id;sensor_type;location;lat;lon;timestamp;pressure;altitude;pressure_sealevel;temperature;humidity
47815;BME280;33579;50.058;18.130;2022-09-16T00:00:04;98287.81;;;14.50;100.00
47815;BME280;33579;50.058;18.130;2022-09-16T00:01:14;98279.25;;;14.48;100.00
47815;BME280;33579;50.058;18.130;2022-09-16T00:02:16;98274.41;;;14.52;100.00
47815;BME280;33579;50.058;18.130;2022-09-16T00:03:18;98273.25;;;14.54;100.00
47815;BME280;33579;50.058;18.130;2022-09-16T00:04:19;98270.03;;;14.59;100.00
47815;BME280;33579;50.058;18.130;2022-09-16T00:05:21;98272.22;;;14.55;100.00
47815;BME280;33579;50.058;18.130;2022-09-16T00:06:25;98271.22;;;14.56;100.00
47815;BME280;33579;50.058;18.130;2022-09-16T00:07:29;98261.00;;;14.53;100.00
47815;BME280;33579;50.058;18.130;2022-09-16T00:08:31;98272.22;;;14.55;100.00
47815;BME280;33579;50.058;18.130;2022-09-16T00:09:32;98278.53;;;14.54;100.00
47815;BME280;33579;50.058;18.130;2022-09-16T00:10:34;98271.84;;;14.58;100.00
47815;BME280;33579;50.058;18.130;2022-09-16T00:11:36;98277.78;;;14.60;100.00
47815;BME280;33579;50.058;18.130;2022-09-16T00:12:37;98279.09;;;14.65;100.00
47815;BME280;33579;50.058;18.130;2022-09-16T00:13:39;98285.66;;;14.69;100.00
47815;BME280;33579;50.058;18.130;2022-09-16T00:14:40;98286.13;;;14.72;100.00
47815;BME280;33579;50.058;18.130;2022-09-16T00:15:44;98289.75;;;14.71;100.00
47815;BME280;33579;50.058;18.130;2022-09-16T00:16:46;98295.06;;;14.71;100.00
47815;BME280;33579;50.058;18.130;2022-09-16T00:17:47;98295.97;;;14.64;100.00
47815;BME280;33579;50.058;18.130;2022-09-16T00:18:53;98289.38;;;14.59;100.00
47815;BME280;33579;50.058;18.130;2022-09-16T00:19:55;98290.84;;;14.62;100.00
47815;BME280;33579;50.058;18.130;2022-09-16T00:20:56;98285.00;;;14.67;100.00
47815;BME280;33579;50.058;18.130;2022-09-16T00:21:58;98287.19;;;14.63;100.00
47815;BME280;33579;50.058;18.130;2022-09-16T00:22:59;98295.22;;;14.55;100.00
47815;BME280;33579;50.058;18.130;2022-09-16T00:24:01;98292.13;;;14.51;100.00
47815;BME280;33579;50.058;18.130;2022-09-16T00:25:02;98292.00;;;14.44;100.00
47815;BME280;33579;50.058;18.130;2022-09-16T00:26:04;98300.50;;;14.40;100.00
47815;BME280;33579;50.058;18.130;2022-09-16T00:27:06;98300.50;;;14.40;100.00
47815;BME280;33579;50.058;18.130;2022-09-16T00:28:08;98301.06;;;14.35;100.00
47815;BME280;33579;50.058;18.130;2022-09-16T00:29:10;98301.53;;;14.39;100.00
47815;BME280;33579;50.058;18.130;2022-09-16T00:30:12;98298.31;;;14.43;100.00
47815;BME280;33579;50.058;18.130;2022-09-16T00:31:13;98294.78;;;14.51;100.00
47815;BME280;33579;50.058;18.130;2022-09-16T00:32:15;98289.75;;;14.56;100.00
47815;BME280;33579;50.058;18.130;2022-09-16T00:33:17;98296.16;;;14.62;100.00
47815;BME280;33579;50.058;18.130;2022-09-16T00:34:19;98294.97;;;14.65;100.00
47815;BME280;33579;50.058;18.130;2022-09-16T00:35:20;98301.69;;;14.67;100.00
47815;BME280;33579;50.058;18.130;2022-09-16T00:36:22;98303.00;;;14.71;100.00
47815;BME280;33579;50.058;18.130;2022-09-16T00:37:23;98301.69;;;14.67;100.00
47815;BME280;33579;50.058;18.130;2022-09-16T00:38:25;98305.81;;;14.55;100.00
47815;BME280;33579;50.058;18.130;2022-09-16T00:39:26;98304.59;;;14.42;100.00
47815;BME280;33579;50.058;18.130;2022-09-16T00:40:28;98307.06;;;14.29;100.00
47815;BME280;33579;50.058;18.130;2022-09-16T00:41:31;98317.34;;;14.24;100.00
47815;BME280;33579;50.058;18.130;2022-09-16T00:42:37;98307.03;;;14.14;100.00
47815;BME280;33579;50.058;18.130;2022-09-16T00:44:06;98312.97;;;14.16;100.00
47815;BME280;33579;50.058;18.130;2022-09-16T00:45:20;98312.59;;;14.19;100.00
47815;BME280;33579;50.058;18.130;2022-09-16T00:46:35;98314.50;;;14.25;100.00
47815;BME280;33579;50.058;18.130;2022-09-16T00:47:49;98314.34;;;14.27;100.00
47815;BME280;33579;50.058;18.130;2022-09-16T00:48:51;98317.34;;;14.24;100.00
47815;BME280;33579;50.058;18.130;2022-09-16T00:49:55;98314.06;;;14.22;100.00
47815;BME280;33579;50.058;18.130;2022-09-16T00:51:02;98308.25;;;14.26;100.00
47815;BME280;33579;50.058;18.130;2022-09-16T00:52:06;98306.25;;;14.28;100.00
47815;BME280;33579;50.058;18.130;2022-09-16T00:53:12;98303.94;;;14.25;100.00
47815;BME280;33579;50.058;18.130;2022-09-16T00:54:17;98307.53;;;14.32;100.00
47815;BME280;33579;50.058;18.130;2022-09-16T00:55:26;98310.25;;;14.39;100.00
47815;BME280;33579;50.058;18.130;2022-09-16T00:56:30;98307.63;;;14.39;100.00
47815;BME280;33579;50.058;18.130;2022-09-16T00:57:35;98303.59;;;14.43;100.00
47815;BME280;33579;50.058;18.130;2022-09-16T00:58:54;98309.34;;;14.47;100.00
47815;BME280;33579;50.058;18.130;2022-09-16T00:59:58;98305.06;;;14.46;100.00
47815;BME280;33579;50.058;18.130;2022-09-16T01:01:02;98308.19;;;14.50;100.00
47815;BME280;33579;50.058;18.130;2022-09-16T01:02:07;98308.34;;;14.48;100.00
47815;BME280;33579;50.058;18.130;2022-09-16T01:03:10;98313.66;;;14.33;100.00
47815;BME280;33579;50.058;18.130;2022-09-16T01:04:13;98311.00;;;14.33;100.00
47815;BME280;33579;50.058;18.130;2022-09-16T01:05:18;98304.69;;;14.34;100.00
47815;BME280;33579;50.058;18.130;2022-09-16T01:06:22;98305.13;;;14.38;100.00
47815;BME280;33579;50.058;18.130;2022-09-16T01:07:44;98306.25;;;14.43;100.00
47815;BME280;33579;50.058;18.130;2022-09-16T01:08:48;98306.44;;;14.42;100.00
47815;BME280;33579;50.058;18.130;2022-09-16T01:09:50;98311.53;;;14.43;100.00
47815;BME280;33579;50.058;18.130;2022-09-16T01:10:51;98311.53;;;14.43;100.00
47815;BME280;33579;50.058;18.130;2022-09-16T01:11:53;98310.19;;;14.47;100.00
47815;BME280;33579;50.058;18.130;2022-09-16T01:12:57;98308.66;;;14.53;100.00
47815;BME280;33579;50.058;18.130;2022-09-16T01:14:01;98313.94;;;14.53;100.00
47815;BME280;33579;50.058;18.130;2022-09-16T01:15:03;98309.00;;;14.50;100.00
47815;BME280;33579;50.058;18.130;2022-09-16T01:17:23;98316.19;;;14.41;100.00
47815;BME280;33579;50.058;18.130;2022-09-16T01:18:39;98308.91;;;14.43;100.00
47815;BME280;33579;50.058;18.130;2022-09-16T01:28:23;98306.47;;;14.18;100.00
47815;BME280;33579;50.058;18.130;2022-09-16T01:31:26;98305.03;;;14.31;100.00
47815;BME280;33579;50.058;18.130;2022-09-16T01:32:51;98302.22;;;14.32;100.00
47815;BME280;33579;50.058;18.130;2022-09-16T01:34:08;98306.94;;;14.22;100.00
47815;BME280;33579;50.058;18.130;2022-09-16T01:37:28;98306.69;;;14.17;100.00
47815;BME280;33579;50.058;18.130;2022-09-16T01:39:12;98307.59;;;14.24;100.00
47815;BME280;33579;50.058;18.130;2022-09-16T01:40:31;98302.41;;;14.31;100.00
47815;BME280;33579;50.058;18.130;2022-09-16T01:41:57;98309.91;;;14.27;100.00
47815;BME280;33579;50.058;18.130;2022-09-16T01:44:54;98299.63;;;14.09;100.00
47815;BME280;33579;50.058;18.130;2022-09-16T01:46:21;98294.25;;;14.02;100.00
47815;BME280;33579;50.058;18.130;2022-09-16T01:47:49;98298.16;;;14.07;100.00
47815;BME280;33579;50.058;18.130;2022-09-16T01:49:00;98300.63;;;14.08;100.00
47815;BME280;33579;50.058;18.130;2022-09-16T01:50:23;98300.06;;;14.13;100.00
47815;BME280;33579;50.058;18.130;2022-09-16T01:51:39;98297.53;;;14.19;100.00
47815;BME280;33579;50.058;18.130;2022-09-16T01:53:11;98301.50;;;14.24;100.00
47815;BME280;33579;50.058;18.130;2022-09-16T01:54:40;98301.66;;;14.22;100.00
47815;BME280;33579;50.058;18.130;2022-09-16T01:55:53;98291.72;;;14.24;100.00
47815;BME280;33579;50.058;18.130;2022-09-16T01:57:05;98296.66;;;14.27;100.00
47815;BME280;33579;50.058;18.130;2022-09-16T01:59:44;98291.69;;;14.09;100.00
47815;BME280;33579;50.058;18.130;2022-09-16T02:00:51;98289.06;;;14.09;100.00
47815;BME280;33579;50.058;18.130;2022-09-16T02:02:01;98288.06;;;14.10;100.00
47815;BME280;33579;50.058;18.130;2022-09-16T02:03:08;98286.84;;;14.13;100.00
47815;BME280;33579;50.058;18.130;2022-09-16T02:04:22;98297.63;;;14.11;100.00
47815;BME280;33579;50.058;18.130;2022-09-16T02:05:28;98297.16;;;14.08;100.00
47815;BME280;33579;50.058;18.130;2022-09-16T02:06:32;98301.28;;;14.10;100.00
47815;BME280;33579;50.058;18.130;2022-09-16T02:07:39;98303.09;;;14.10;100.00
47815;BME280;33579;50.058;18.130;2022-09-16T02:08:46;98308.56;;;14.08;100.00
47815;BME280;33579;50.058;18.130;2022-09-16T02:09:54;98315.50;;;14.09;100.00
47815;BME280;33579;50.058;18.130;2022-09-16T02:10:59;98312.56;;;14.04;100.00
47815;BME280;33579;50.058;18.130;2022-09-16T02:12:05;98316.66;;;14.07;100.00
47815;BME280;33579;50.058;18.130;2022-09-16T02:13:18;98322.97;;;14.05;100.00
47815;BME280;33579;50.058;18.130;2022-09-16T02:14:24;98319.47;;;14.05;100.00
47815;BME280;33579;50.058;18.130;2022-09-16T02:15:29;98319.16;;;14.08;100.00
47815;BME280;33579;50.058;18.130;2022-09-16T02:16:35;98318.97;;;14.10;100.00
47815;BME280;33579;50.058;18.130;2022-09-16T02:17:44;98316.16;;;14.11;100.00
47815;BME280;33579;50.058;18.130;2022-09-16T02:18:56;98315.78;;;14.14;100.00
47815;BME280;33579;50.058;18.130;2022-09-16T02:20:04;98311.13;;;14.16;100.00
47815;BME280;33579;50.058;18.130;2022-09-16T02:21:11;98318.25;;;14.16;100.00
47815;BME280;33579;50.058;18.130;2022-09-16T02:22:26;98318.06;;;14.17;100.00
47815;BME280;33579;50.058;18.130;2022-09-16T02:23:33;98312.50;;;14.12;100.00
47815;BME280;33579;50.058;18.130;2022-09-16T02:24:37;98319.47;;;14.05;100.00
47815;BME280;33579;50.058;18.130;2022-09-16T02:25:41;98317.56;;;13.99;100.00
47815;BME280;33579;50.058;18.130;2022-09-16T02:26:49;98317.25;;;13.94;100.00
47815;BME280;33579;50.058;18.130;2022-09-16T02:27:52;98316.69;;;13.83;100.00
47815;BME280;33579;50.058;18.130;2022-09-16T02:28:54;98323.63;;;13.84;100.00
47815;BME280;33579;50.058;18.130;2022-09-16T02:30:13;98330.72;;;13.84;100.00
47815;BME280;33579;50.058;18.130;2022-09-16T02:31:19;98327.00;;;13.70;100.00
47815;BME280;33579;50.058;18.130;2022-09-16T02:32:25;98324.78;;;13.58;100.00
47815;BME280;33579;50.058;18.130;2022-09-16T02:33:36;98326.94;;;13.55;100.00
47815;BME280;33579;50.058;18.130;2022-09-16T02:34:44;98333.25;;;13.54;100.00
47815;BME280;33579;50.058;18.130;2022-09-16T02:35:50;98324.63;;;13.52;100.00
47815;BME280;33579;50.058;18.130;2022-09-16T02:36:56;98335.41;;;13.50;100.00
47815;BME280;33579;50.058;18.130;2022-09-16T02:38:06;98331.91;;;13.49;100.00
47815;BME280;33579;50.058;18.130;2022-09-16T02:39:16;98338.97;;;13.57;100.00
47815;BME280;33579;50.058;18.130;2022-09-16T02:40:26;98340.81;;;13.57;100.00
47815;BME280;33579;50.058;18.130;2022-09-16T02:41:30;98342.28;;;13.59;100.00
47815;BME280;33579;50.058;18.130;2022-09-16T02:42:32;98346.88;;;13.66;100.00
47815;BME280;33579;50.058;18.130;2022-09-16T02:43:34;98347.19;;;13.71;100.00
47815;BME280;33579;50.058;18.130;2022-09-16T02:44:36;98345.00;;;13.74;100.00
47815;BME280;33579;50.058;18.130;2022-09-16T02:45:57;98347.47;;;13.76;100.00
47815;BME280;33579;50.058;18.130;2022-09-16T02:47:26;98341.00;;;13.79;100.00
47815;BME280;33579;50.058;18.130;2022-09-16T02:53:55;98332.13;;;13.40;100.00
47815;BME280;33579;50.058;18.130;2022-09-16T02:56:14;98335.47;;;13.33;100.00
47815;BME280;33579;50.058;18.130;2022-09-16T02:57:18;98329.06;;;13.28;100.00
47815;BME280;33579;50.058;18.130;2022-09-16T02:58:20;98333.19;;;13.22;100.00
47815;BME280;33579;50.058;18.130;2022-09-16T02:59:22;98330.88;;;13.19;100.00
47815;BME280;33579;50.058;18.130;2022-09-16T03:00:24;98330.59;;;13.14;100.00
47815;BME280;33579;50.058;18.130;2022-09-16T03:01:29;98327.47;;;13.10;100.00
47815;BME280;33579;50.058;18.130;2022-09-16T03:02:32;98328.81;;;13.06;100.00
47815;BME280;33579;50.058;18.130;2022-09-16T03:03:34;98327.16;;;13.05;100.00
47815;BME280;33579;50.058;18.130;2022-09-16T03:04:35;98331.44;;;13.06;100.00
47815;BME280;33579;50.058;18.130;2022-09-16T03:05:59;98325.69;;;13.02;100.00
47815;BME280;33579;50.058;18.130;2022-09-16T03:07:06;98329.16;;;13.03;100.00
47815;BME280;33579;50.058;18.130;2022-09-16T03:08:09;98321.41;;;13.01;100.00
47815;BME280;33579;50.058;18.130;2022-09-16T03:09:12;98322.56;;;12.99;100.00
47815;BME280;33579;50.058;18.130;2022-09-16T03:10:14;98318.91;;;13.00;100.00
47815;BME280;33579;50.058;18.130;2022-09-16T03:11:22;98324.03;;;13.01;100.00
47815;BME280;33579;50.058;18.130;2022-09-16T03:15:27;98305.41;;;13.03;100.00
47815;BME280;33579;50.058;18.130;2022-09-16T03:17:10;98305.19;;;13.04;100.00
47815;BME280;33579;50.058;18.130;2022-09-16T03:18:25;98308.34;;;13.08;100.00
47815;BME280;33579;50.058;18.130;2022-09-16T03:22:43;98307.56;;;12.99;100.00
47815;BME280;33579;50.058;18.130;2022-09-16T03:24:13;98308.44;;;12.83;100.00
47815;BME280;33579;50.058;18.130;2022-09-16T03:25:25;98305.44;;;12.86;100.00
47815;BME280;33579;50.058;18.130;2022-09-16T03:26:50;98301.16;;;12.85;100.00
47815;BME280;33579;50.058;18.130;2022-09-16T03:28:03;98300.00;;;12.88;100.00
47815;BME280;33579;50.058;18.130;2022-09-16T03:29:18;98301.13;;;12.93;100.00
47815;BME280;33579;50.058;18.130;2022-09-16T03:30:24;98300.00;;;12.88;100.00
47815;BME280;33579;50.058;18.130;2022-09-16T03:31:30;98300.00;;;12.88;100.00
47815;BME280;33579;50.058;18.130;2022-09-16T03:32:55;98299.31;;;12.94;100.00
47815;BME280;33579;50.058;18.130;2022-09-16T03:35:07;98297.63;;;13.01;100.00
47815;BME280;33579;50.058;18.130;2022-09-16T03:36:14;98298.25;;;13.12;100.00
47815;BME280;33579;50.058;18.130;2022-09-16T03:37:20;98298.75;;;13.15;100.00
47815;BME280;33579;50.058;18.130;2022-09-16T03:38:22;98292.97;;;13.12;100.00
47815;BME280;33579;50.058;18.130;2022-09-16T03:39:24;98292.78;;;13.13;100.00
47815;BME280;33579;50.058;18.130;2022-09-16T03:40:27;98294.47;;;13.06;100.00
47815;BME280;33579;50.058;18.130;2022-09-16T03:41:31;98289.38;;;13.04;100.00
47815;BME280;33579;50.058;18.130;2022-09-16T03:42:34;98287.56;;;13.05;100.00
47815;BME280;33579;50.058;18.130;2022-09-16T03:43:38;98292.97;;;13.12;100.00
47815;BME280;33579;50.058;18.130;2022-09-16T03:44:39;98297.59;;;13.10;100.00
47815;BME280;33579;50.058;18.130;2022-09-16T03:45:41;98294.78;;;13.11;100.00
47815;BME280;33579;50.058;18.130;2022-09-16T03:46:43;98293.63;;;13.14;100.00
47815;BME280;33579;50.058;18.130;2022-09-16T03:47:46;98293.47;;;13.15;100.00
47815;BME280;33579;50.058;18.130;2022-09-16T03:48:48;98291.84;;;13.06;100.00
47815;BME280;33579;50.058;18.130;2022-09-16T03:49:50;98295.28;;;13.06;100.00
47815;BME280;33579;50.058;18.130;2022-09-16T03:50:52;98300.91;;;13.12;100.00
47815;BME280;33579;50.058;18.130;2022-09-16T03:51:53;98290.72;;;13.00;100.00
47815;BME280;33579;50.058;18.130;2022-09-16T03:52:55;98297.00;;;12.99;100.00
47815;BME280;33579;50.058;18.130;2022-09-16T03:53:56;98298.44;;;13.02;100.00
47815;BME280;33579;50.058;18.130;2022-09-16T03:54:57;98296.63;;;13.02;100.00
47815;BME280;33579;50.058;18.130;2022-09-16T03:55:59;98297.13;;;13.06;100.00
47815;BME280;33579;50.058;18.130;2022-09-16T03:57:01;98295.94;;;13.08;100.00
47815;BME280;33579;50.058;18.130;2022-09-16T03:58:02;98293.28;;;13.08;100.00
47815;BME280;33579;50.058;18.130;2022-09-16T03:59:04;98288.69;;;13.11;100.00
47815;BME280;33579;50.058;18.130;2022-09-16T04:00:07;98282.34;;;13.20;100.00
47815;BME280;33579;50.058;18.130;2022-09-16T04:01:14;98288.75;;;13.26;100.00
47815;BME280;33579;50.058;18.130;2022-09-16T04:02:16;98278.03;;;13.27;100.00
47815;BME280;33579;50.058;18.130;2022-09-16T04:03:18;98289.75;;;13.25;100.00
47815;BME280;33579;50.058;18.130;2022-09-16T04:04:19;98282.66;;;13.25;100.00
47815;BME280;33579;50.058;18.130;2022-09-16T04:05:21;98282.31;;;13.28;100.00
47815;BME280;33579;50.058;18.130;2022-09-16T04:06:22;98287.31;;;13.23;100.00
47815;BME280;33579;50.058;18.130;2022-09-16T04:07:24;98292.59;;;13.23;100.00
47815;BME280;33579;50.058;18.130;2022-09-16T04:08:25;98297.34;;;13.28;100.00
47815;BME280;33579;50.058;18.130;2022-09-16T04:09:27;98295.84;;;13.33;100.00
47815;BME280;33579;50.058;18.130;2022-09-16T04:10:28;98293.00;;;13.35;100.00
47815;BME280;33579;50.058;18.130;2022-09-16T04:11:30;98290.84;;;13.39;100.00
47815;BME280;33579;50.058;18.130;2022-09-16T04:12:31;98295.78;;;13.42;100.00
47815;BME280;33579;50.058;18.130;2022-09-16T04:13:34;98297.41;;;13.43;100.00
47815;BME280;33579;50.058;18.130;2022-09-16T04:14:36;98294.28;;;13.47;100.00
47815;BME280;33579;50.058;18.130;2022-09-16T04:15:37;98295.41;;;13.53;100.00
47815;BME280;33579;50.058;18.130;2022-09-16T04:16:39;98295.88;;;13.57;100.00
47815;BME280;33579;50.058;18.130;2022-09-16T04:17:45;98296.53;;;13.59;100.00
47815;BME280;33579;50.058;18.130;2022-09-16T04:18:47;98298.81;;;13.62;100.00
47815;BME280;33579;50.058;18.130;2022-09-16T04:19:49;98296.81;;;13.64;100.00
47815;BME280;33579;50.058;18.130;2022-09-16T04:20:58;98295.16;;;13.63;100.00
47815;BME280;33579;50.058;18.130;2022-09-16T04:22:00;98298.28;;;13.67;100.00
47815;BME280;33579;50.058;18.130;2022-09-16T04:23:01;98293.66;;;13.69;100.00
47815;BME280;33579;50.058;18.130;2022-09-16T04:24:03;98297.13;;;13.69;100.00
47815;BME280;33579;50.058;18.130;2022-09-16T04:25:05;98302.09;;;13.64;100.00
47815;BME280;33579;50.058;18.130;2022-09-16T04:26:06;98299.34;;;13.57;100.00
47815;BME280;33579;50.058;18.130;2022-09-16T04:27:08;98299.22;;;13.51;100.00
47815;BME280;33579;50.058;18.130;2022-09-16T04:28:10;98305.69;;;13.48;100.00
47815;BME280;33579;50.058;18.130;2022-09-16T04:29:11;98304.38;;;13.44;100.00
47815;BME280;33579;50.058;18.130;2022-09-16T04:30:13;98300.72;;;13.45;100.00
47815;BME280;33579;50.058;18.130;2022-09-16T04:31:15;98302.06;;;13.41;100.00
47815;BME280;33579;50.058;18.130;2022-09-16T04:32:16;98293.31;;;13.40;100.00
47815;BME280;33579;50.058;18.130;2022-09-16T04:33:18;98288.56;;;13.35;100.00
47815;BME280;33579;50.058;18.130;2022-09-16T04:34:20;98287.75;;;13.27;100.00
47815;BME280;33579;50.058;18.130;2022-09-16T04:35:22;98284.00;;;13.21;100.00
47815;BME280;33579;50.058;18.130;2022-09-16T04:36:24;98290.13;;;13.13;100.00
47815;BME280;33579;50.058;18.130;2022-09-16T04:37:29;98287.97;;;13.17;100.00
47815;BME280;33579;50.058;18.130;2022-09-16T04:38:31;98295.13;;;13.08;100.00
47815;BME280;33579;50.058;18.130;2022-09-16T04:39:32;98300.25;;;13.10;100.00
47815;BME280;33579;50.058;18.130;2022-09-16T04:40:34;98296.28;;;13.05;100.00
47815;BME280;33579;50.058;18.130;2022-09-16T04:41:35;98301.44;;;12.99;100.00
47815;BME280;33579;50.058;18.130;2022-09-16T04:42:37;98297.50;;;12.95;100.00
47815;BME280;33579;50.058;18.130;2022-09-16T04:43:39;98300.81;;;12.88;100.00
47815;BME280;33579;50.058;18.130;2022-09-16T04:44:41;98292.72;;;12.90;100.00
47815;BME280;33579;50.058;18.130;2022-09-16T04:45:42;98291.09;;;12.89;100.00
47815;BME280;33579;50.058;18.130;2022-09-16T04:46:44;98293.22;;;12.85;100.00
47815;BME280;33579;50.058;18.130;2022-09-16T04:47:45;98292.75;;;12.82;100.00
47815;BME280;33579;50.058;18.130;2022-09-16T04:48:47;98287.66;;;12.80;100.00
47815;BME280;33579;50.058;18.130;2022-09-16T04:49:49;98287.47;;;12.82;100.00
47815;BME280;33579;50.058;18.130;2022-09-16T04:50:52;98289.09;;;12.91;100.00
47815;BME280;33579;50.058;18.130;2022-09-16T04:51:53;98286.16;;;12.86;100.00
47815;BME280;33579;50.058;18.130;2022-09-16T04:52:55;98280.00;;;12.93;100.00
47815;BME280;33579;50.058;18.130;2022-09-16T04:53:57;98285.59;;;12.99;100.00
47815;BME280;33579;50.058;18.130;2022-09-16T04:54:58;98289.22;;;12.98;100.00
47815;BME280;33579;50.058;18.130;2022-09-16T04:56:07;98289.72;;;13.01;100.00
47815;BME280;33579;50.058;18.130;2022-09-16T04:57:09;98285.44;;;13.00;100.00
47815;BME280;33579;50.058;18.130;2022-09-16T04:58:11;98285.44;;;13.00;100.00
47815;BME280;33579;50.058;18.130;2022-09-16T04:59:12;98288.41;;;12.97;100.00
47815;BME280;33579;50.058;18.130;2022-09-16T05:00:14;98288.06;;;13.00;100.00
47815;BME280;33579;50.058;18.130;2022-09-16T05:01:17;98289.88;;;13.00;100.00
47815;BME280;33579;50.058;18.130;2022-09-16T05:02:19;98293.34;;;13.00;100.00
47815;BME280;33579;50.058;18.130;2022-09-16T05:03:21;98297.63;;;13.01;100.00
47815;BME280;33579;50.058;18.130;2022-09-16T05:04:22;98291.84;;;13.06;100.00
47815;BME280;33579;50.058;18.130;2022-09-16T05:05:24;98293.28;;;13.08;100.00
47815;BME280;33579;50.058;18.130;2022-09-16T05:06:31;98298.41;;;13.10;100.00
47815;BME280;33579;50.058;18.130;2022-09-16T05:07:33;98297.13;;;13.06;100.00
47815;BME280;33579;50.058;18.130;2022-09-16T05:08:34;98298.13;;;13.05;100.00
47815;BME280;33579;50.058;18.130;2022-09-16T05:09:36;98293.66;;;13.05;100.00
47815;BME280;33579;50.058;18.130;2022-09-16T05:10:37;98295.41;;;13.13;100.00
47815;BME280;33579;50.058;18.130;2022-09-16T05:11:39;98303.66;;;13.18;100.00
47815;BME280;33579;50.058;18.130;2022-09-16T05:12:41;98301.91;;;13.11;100.00
47815;BME280;33579;50.058;18.130;2022-09-16T05:13:48;98302.69;;;13.11;100.00
47815;BME280;33579;50.058;18.130;2022-09-16T05:14:50;98300.91;;;13.12;100.00
47815;BME280;33579;50.058;18.130;2022-09-16T05:15:51;98295.09;;;13.16;100.00
47815;BME280;33579;50.058;18.130;2022-09-16T05:16:53;98288.59;;;13.27;100.00
47815;BME280;33579;50.058;18.130;2022-09-16T05:17:54;98282.47;;;13.27;100.00
47815;BME280;33579;50.058;18.130;2022-09-16T05:18:57;98286.44;;;13.31;100.00
47815;BME280;33579;50.058;18.130;2022-09-16T05:19:59;98290.88;;;13.30;100.00
47815;BME280;33579;50.058;18.130;2022-09-16T05:21:02;98287.56;;;13.37;100.00
47815;BME280;33579;50.058;18.130;2022-09-16T05:22:04;98288.53;;;13.44;100.00
47815;BME280;33579;50.058;18.130;2022-09-16T05:23:06;98284.88;;;13.45;100.00
47815;BME280;33579;50.058;18.130;2022-09-16T05:24:09;98286.56;;;13.46;100.00
47815;BME280;33579;50.058;18.130;2022-09-16T05:25:11;98282.41;;;13.43;100.00
47815;BME280;33579;50.058;18.130;2022-09-16T05:26:16;98286.00;;;13.51;100.00
47815;BME280;33579;50.058;18.130;2022-09-16T05:27:17;98291.88;;;13.61;100.00
47815;BME280;33579;50.058;18.130;2022-09-16T05:28:20;98291.66;;;13.71;100.00
47815;BME280;33579;50.058;18.130;2022-09-16T05:29:21;98299.16;;;13.82;100.00
47815;BME280;33579;50.058;18.130;2022-09-16T05:30:23;98299.22;;;13.97;100.00
47815;BME280;33579;50.058;18.130;2022-09-16T05:31:34;98310.50;;;14.14;100.00
47815;BME280;33579;50.058;18.130;2022-09-16T05:32:36;98314.59;;;14.17;100.00
47815;BME280;33579;50.058;18.130;2022-09-16T05:33:39;98318.16;;;14.24;100.00
47815;BME280;33579;50.058;18.130;2022-09-16T05:34:41;98322.44;;;14.25;100.00
47815;BME280;33579;50.058;18.130;2022-09-16T05:35:42;98319.00;;;14.25;100.00
47815;BME280;33579;50.058;18.130;2022-09-16T05:36:45;98328.94;;;14.23;100.00
47815;BME280;33579;50.058;18.130;2022-09-16T05:37:48;98326.84;;;14.18;100.00
47815;BME280;33579;50.058;18.130;2022-09-16T05:38:50;98331.19;;;14.11;100.00
47815;BME280;33579;50.058;18.130;2022-09-16T05:40:11;98328.25;;;14.05;100.00
47815;BME280;33579;50.058;18.130;2022-09-16T05:41:13;98322.66;;;14.00;100.00
47815;BME280;33579;50.058;18.130;2022-09-16T05:42:14;98330.94;;;13.97;100.00
47815;BME280;33579;50.058;18.130;2022-09-16T05:43:16;98329.63;;;14.01;100.00
47815;BME280;33579;50.058;18.130;2022-09-16T05:44:17;98323.59;;;14.08;100.00
47815;BME280;33579;50.058;18.130;2022-09-16T05:45:19;98322.97;;;14.05;100.00
47815;BME280;33579;50.058;18.130;2022-09-16T05:46:28;98320.84;;;14.01;100.00
47815;BME280;33579;50.058;18.130;2022-09-16T05:47:29;98328.91;;;14.08;100.00
47815;BME280;33579;50.058;18.130;2022-09-16T05:48:31;98317.25;;;14.17;100.00
47815;BME280;33579;50.058;18.130;2022-09-16T05:49:33;98319.38;;;14.22;100.00
47815;BME280;33579;50.058;18.130;2022-09-16T05:50:35;98306.78;;;14.24;100.00
47815;BME280;33579;50.058;18.130;2022-09-16T05:51:38;98311.53;;;14.28;100.00
47815;BME280;33579;50.058;18.130;2022-09-16T05:52:39;98318.53;;;14.21;100.00
47815;BME280;33579;50.058;18.130;2022-09-16T05:53:41;98319.91;;;14.17;100.00
47815;BME280;33579;50.058;18.130;2022-09-16T05:54:42;98315.94;;;14.13;100.00
47815;BME280;33579;50.058;18.130;2022-09-16T05:56:55;98309.22;;;14.10;100.00
47815;BME280;33579;50.058;18.130;2022-09-16T05:57:57;98311.50;;;14.13;100.00
47815;BME280;33579;50.058;18.130;2022-09-16T05:58:59;98316.06;;;14.19;100.00
47815;BME280;33579;50.058;18.130;2022-09-16T06:00:02;98313.06;;;14.23;100.00
47815;BME280;33579;50.058;18.130;2022-09-16T06:01:16;98306.47;;;14.18;100.00
47815;BME280;33579;50.058;18.130;2022-09-16T06:02:18;98312.22;;;14.22;100.00
47815;BME280;33579;50.058;18.130;2022-09-16T06:03:19;98303.94;;;14.25;100.00
47815;BME280;33579;50.058;18.130;2022-09-16T06:04:21;98307.88;;;14.29;100.00
47815;BME280;33579;50.058;18.130;2022-09-16T06:05:22;98304.81;;;14.41;100.00
47815;BME280;33579;50.058;18.130;2022-09-16T06:06:34;98298.22;;;14.52;100.00
47815;BME280;33579;50.058;18.130;2022-09-16T06:07:35;98294.59;;;14.53;100.00
47815;BME280;33579;50.058;18.130;2022-09-16T06:08:38;98297.69;;;14.56;100.00
47815;BME280;33579;50.058;18.130;2022-09-16T06:09:40;98289.94;;;14.55;100.00